Airfield :
LOGIN :

Register | Disclaimer

   EN    FR    IT 

 










Legend :    VFR   Marginal VFR   IFR   Intensive IFR   Very Intensive IFR
Visi :
Ceiling :
>= 8 km
>= 3000ft
5 to 8 km
1000 to 3000 ft
1500m to 5 km
500 to 1000 ft
800 to 1500m
200 to 500 ft
< 800m
< 200 ft
Symbols :   Thunderstorms  Fog  Heavy snow  Heavy precipitations  Wind > 20 kt
SIGMETs :     Misc.  Thunderstorms  Icing  Turbulence  Mountain Waves  Volcanic Ashes







- Airport Elevation : 117 ft
- IATA code : NWI
- Download approach charts


EGSH - Norwich

CURRENT METAR :
  • 262250Z AUTO 29003KT 9999 OVC044/// 08/05 Q1032

EXPIRED METARs :
  • 262220Z AUTO 00000KT 9999 OVC044/// 08/05 Q1032
  • 262150Z AUTO 00000KT 9999 OVC045/// 08/05 Q1033
  • 262120Z VRB01KT 9999 BKN045 08/05 Q1033 NOSIG
  • 262050Z 09002KT 9999 FEW035 SCT046 08/05 Q1033 NOSIG
  • 262020Z 12001KT 9999 FEW037 SCT043 08/04 Q1033

TAF TAF EGSH
Valid from the 26 at 21:00 until the 27 at 00:00 UTC


262003Z 2621/2624 32008KT 9999 SCT035
ATIS : +44 1603 420 640
No reported NOTAMs for that airfield.



MET'MAP, your aeronautical weather chart ! - Copyright ORBIFLY December 2007 - Disclaimer

ORBIFLY MET'MAP TEAM :

Programming & Development : Alexandra Zaïnal
Concept & Development : Baudouin d'Aumeries
Co-Development & Prog : Marc-Olivier Méhu
Technical & hardware support : Manuel Goepfert

Contact : metmap@orbifly.com




SOURCES & CREDITS :

   NOAA